sensor_id;sensor_type;location;lat;lon;timestamp;P1;durP1;ratioP1;P2;durP2;ratioP2
6679;SDS011;3376;42.664;23.346;2022-10-16T00:00:21;11.93;;;10.83;;
6679;SDS011;3376;42.664;23.346;2022-10-16T00:02:47;11.30;;;10.50;;
6679;SDS011;3376;42.664;23.346;2022-10-16T00:05:14;12.37;;;10.60;;
6679;SDS011;3376;42.664;23.346;2022-10-16T00:07:41;14.80;;;10.73;;
6679;SDS011;3376;42.664;23.346;2022-10-16T00:10:08;11.33;;;10.27;;
6679;SDS011;3376;42.664;23.346;2022-10-16T00:12:36;10.53;;;9.67;;
6679;SDS011;3376;42.664;23.346;2022-10-16T00:15:03;11.27;;;10.17;;
6679;SDS011;3376;42.664;23.346;2022-10-16T00:17:31;11.90;;;10.73;;
6679;SDS011;3376;42.664;23.346;2022-10-16T00:19:58;13.43;;;10.37;;
6679;SDS011;3376;42.664;23.346;2022-10-16T00:22:25;10.27;;;9.27;;
6679;SDS011;3376;42.664;23.346;2022-10-16T00:24:52;10.93;;;10.13;;
6679;SDS011;3376;42.664;23.346;2022-10-16T00:27:19;11.20;;;9.90;;
6679;SDS011;3376;42.664;23.346;2022-10-16T00:29:50;10.17;;;9.43;;
6679;SDS011;3376;42.664;23.346;2022-10-16T00:32:17;11.33;;;10.23;;
6679;SDS011;3376;42.664;23.346;2022-10-16T00:34:44;11.67;;;10.10;;
6679;SDS011;3376;42.664;23.346;2022-10-16T00:37:11;10.03;;;9.23;;
6679;SDS011;3376;42.664;23.346;2022-10-16T00:39:38;12.13;;;11.00;;
6679;SDS011;3376;42.664;23.346;2022-10-16T00:42:05;10.30;;;9.60;;
6679;SDS011;3376;42.664;23.346;2022-10-16T00:44:42;11.90;;;10.77;;
6679;SDS011;3376;42.664;23.346;2022-10-16T00:47:20;11.60;;;10.70;;
6679;SDS011;3376;42.664;23.346;2022-10-16T00:49:51;10.60;;;9.63;;
6679;SDS011;3376;42.664;23.346;2022-10-16T00:52:30;11.30;;;10.23;;
6679;SDS011;3376;42.664;23.346;2022-10-16T00:54:57;11.23;;;9.67;;
6679;SDS011;3376;42.664;23.346;2022-10-16T00:57:24;9.23;;;8.47;;
6679;SDS011;3376;42.664;23.346;2022-10-16T00:59:52;10.57;;;9.77;;
6679;SDS011;3376;42.664;23.346;2022-10-16T01:02:21;10.47;;;9.53;;
6679;SDS011;3376;42.664;23.346;2022-10-16T01:04:48;11.13;;;10.23;;
6679;SDS011;3376;42.664;23.346;2022-10-16T01:07:20;11.30;;;10.43;;
6679;SDS011;3376;42.664;23.346;2022-10-16T01:09:59;11.80;;;10.20;;
6679;SDS011;3376;42.664;23.346;2022-10-16T01:12:34;9.43;;;8.77;;
6679;SDS011;3376;42.664;23.346;2022-10-16T01:15:08;11.50;;;10.00;;
6679;SDS011;3376;42.664;23.346;2022-10-16T01:17:43;10.20;;;9.60;;
6679;SDS011;3376;42.664;23.346;2022-10-16T01:20:16;11.40;;;10.33;;
6679;SDS011;3376;42.664;23.346;2022-10-16T01:22:55;10.10;;;9.10;;
6679;SDS011;3376;42.664;23.346;2022-10-16T01:25:30;12.97;;;10.70;;
6679;SDS011;3376;42.664;23.346;2022-10-16T01:28:16;11.67;;;10.87;;
6679;SDS011;3376;42.664;23.346;2022-10-16T01:30:47;12.80;;;10.03;;
6679;SDS011;3376;42.664;23.346;2022-10-16T01:33:20;9.80;;;8.73;;
6679;SDS011;3376;42.664;23.346;2022-10-16T01:35:52;9.60;;;8.80;;
6679;SDS011;3376;42.664;23.346;2022-10-16T01:38:22;10.27;;;9.47;;
6679;SDS011;3376;42.664;23.346;2022-10-16T01:40:57;10.70;;;9.33;;
6679;SDS011;3376;42.664;23.346;2022-10-16T01:43:28;11.50;;;9.07;;
6679;SDS011;3376;42.664;23.346;2022-10-16T01:46:01;11.50;;;8.47;;
6679;SDS011;3376;42.664;23.346;2022-10-16T01:48:28;9.73;;;9.13;;
6679;SDS011;3376;42.664;23.346;2022-10-16T01:50:58;9.57;;;8.63;;
6679;SDS011;3376;42.664;23.346;2022-10-16T01:53:29;9.30;;;8.53;;
6679;SDS011;3376;42.664;23.346;2022-10-16T01:55:57;10.57;;;9.53;;
6679;SDS011;3376;42.664;23.346;2022-10-16T01:58:26;10.57;;;9.57;;
6679;SDS011;3376;42.664;23.346;2022-10-16T02:00:59;10.10;;;9.37;;
6679;SDS011;3376;42.664;23.346;2022-10-16T02:03:27;9.80;;;8.90;;
6679;SDS011;3376;42.664;23.346;2022-10-16T02:05:55;9.73;;;9.03;;
6679;SDS011;3376;42.664;23.346;2022-10-16T02:08:24;10.43;;;9.53;;
6679;SDS011;3376;42.664;23.346;2022-10-16T02:10:54;9.97;;;9.20;;
6679;SDS011;3376;42.664;23.346;2022-10-16T02:13:21;10.33;;;8.97;;
6679;SDS011;3376;42.664;23.346;2022-10-16T02:15:55;10.10;;;9.30;;
6679;SDS011;3376;42.664;23.346;2022-10-16T02:18:22;10.23;;;9.20;;
6679;SDS011;3376;42.664;23.346;2022-10-16T02:20:52;9.80;;;9.10;;
6679;SDS011;3376;42.664;23.346;2022-10-16T02:23:23;10.10;;;9.27;;
6679;SDS011;3376;42.664;23.346;2022-10-16T02:25:56;10.23;;;9.33;;
6679;SDS011;3376;42.664;23.346;2022-10-16T02:28:28;9.70;;;9.07;;
6679;SDS011;3376;42.664;23.346;2022-10-16T02:31:04;10.33;;;9.50;;
6679;SDS011;3376;42.664;23.346;2022-10-16T02:33:36;10.73;;;9.73;;
6679;SDS011;3376;42.664;23.346;2022-10-16T02:36:06;11.77;;;9.80;;
6679;SDS011;3376;42.664;23.346;2022-10-16T02:38:34;11.20;;;10.10;;
6679;SDS011;3376;42.664;23.346;2022-10-16T02:41:01;10.73;;;9.63;;
6679;SDS011;3376;42.664;23.346;2022-10-16T02:43:29;12.33;;;11.13;;
6679;SDS011;3376;42.664;23.346;2022-10-16T02:45:56;11.50;;;10.40;;
6679;SDS011;3376;42.664;23.346;2022-10-16T02:48:24;12.63;;;9.90;;
6679;SDS011;3376;42.664;23.346;2022-10-16T02:50:51;15.23;;;11.70;;
6679;SDS011;3376;42.664;23.346;2022-10-16T02:53:17;10.37;;;9.57;;
6679;SDS011;3376;42.664;23.346;2022-10-16T02:55:44;10.03;;;9.23;;
6679;SDS011;3376;42.664;23.346;2022-10-16T02:58:11;10.03;;;9.33;;
6679;SDS011;3376;42.664;23.346;2022-10-16T03:00:38;11.37;;;10.60;;
6679;SDS011;3376;42.664;23.346;2022-10-16T03:03:04;11.40;;;10.40;;
6679;SDS011;3376;42.664;23.346;2022-10-16T03:05:32;11.13;;;10.23;;
6679;SDS011;3376;42.664;23.346;2022-10-16T03:07:59;11.13;;;10.17;;
6679;SDS011;3376;42.664;23.346;2022-10-16T03:10:26;10.37;;;9.77;;
6679;SDS011;3376;42.664;23.346;2022-10-16T03:12:53;11.97;;;10.73;;
6679;SDS011;3376;42.664;23.346;2022-10-16T03:15:20;11.23;;;10.23;;
6679;SDS011;3376;42.664;23.346;2022-10-16T03:17:47;11.00;;;10.10;;
6679;SDS011;3376;42.664;23.346;2022-10-16T03:20:14;12.73;;;10.10;;
6679;SDS011;3376;42.664;23.346;2022-10-16T03:22:42;14.33;;;9.93;;
6679;SDS011;3376;42.664;23.346;2022-10-16T03:25:09;10.53;;;9.57;;
6679;SDS011;3376;42.664;23.346;2022-10-16T03:27:35;9.53;;;8.83;;
6679;SDS011;3376;42.664;23.346;2022-10-16T03:30:02;9.80;;;9.00;;
6679;SDS011;3376;42.664;23.346;2022-10-16T03:32:29;9.67;;;9.07;;
6679;SDS011;3376;42.664;23.346;2022-10-16T03:34:56;11.03;;;10.07;;
6679;SDS011;3376;42.664;23.346;2022-10-16T03:37:23;9.77;;;9.10;;
6679;SDS011;3376;42.664;23.346;2022-10-16T03:39:51;9.43;;;8.70;;
6679;SDS011;3376;42.664;23.346;2022-10-16T03:42:18;9.23;;;8.63;;
6679;SDS011;3376;42.664;23.346;2022-10-16T03:44:44;10.20;;;9.53;;
6679;SDS011;3376;42.664;23.346;2022-10-16T03:47:11;10.03;;;9.27;;
6679;SDS011;3376;42.664;23.346;2022-10-16T03:49:38;10.70;;;9.70;;
6679;SDS011;3376;42.664;23.346;2022-10-16T03:52:05;9.43;;;8.77;;
6679;SDS011;3376;42.664;23.346;2022-10-16T03:54:31;9.63;;;8.93;;
6679;SDS011;3376;42.664;23.346;2022-10-16T03:56:59;11.40;;;10.27;;
6679;SDS011;3376;42.664;23.346;2022-10-16T03:59:26;10.17;;;9.17;;
6679;SDS011;3376;42.664;23.346;2022-10-16T04:01:53;10.73;;;8.77;;
6679;SDS011;3376;42.664;23.346;2022-10-16T04:04:20;9.90;;;9.20;;
6679;SDS011;3376;42.664;23.346;2022-10-16T04:06:46;9.17;;;8.37;;
6679;SDS011;3376;42.664;23.346;2022-10-16T04:09:13;9.27;;;8.67;;
6679;SDS011;3376;42.664;23.346;2022-10-16T04:11:40;10.90;;;8.83;;
6679;SDS011;3376;42.664;23.346;2022-10-16T04:14:08;8.53;;;8.03;;
6679;SDS011;3376;42.664;23.346;2022-10-16T04:16:35;9.13;;;8.43;;
6679;SDS011;3376;42.664;23.346;2022-10-16T04:19:01;8.97;;;8.27;;
6679;SDS011;3376;42.664;23.346;2022-10-16T04:21:28;9.30;;;8.40;;
6679;SDS011;3376;42.664;23.346;2022-10-16T04:23:55;9.40;;;8.70;;
6679;SDS011;3376;42.664;23.346;2022-10-16T04:26:22;8.57;;;7.90;;
6679;SDS011;3376;42.664;23.346;2022-10-16T04:28:49;9.03;;;8.23;;
6679;SDS011;3376;42.664;23.346;2022-10-16T04:31:17;8.57;;;7.80;;
6679;SDS011;3376;42.664;23.346;2022-10-16T04:33:43;8.43;;;7.83;;
6679;SDS011;3376;42.664;23.346;2022-10-16T04:36:10;9.20;;;8.50;;
6679;SDS011;3376;42.664;23.346;2022-10-16T04:38:38;9.03;;;8.20;;
6679;SDS011;3376;42.664;23.346;2022-10-16T04:41:05;9.67;;;8.90;;
6679;SDS011;3376;42.664;23.346;2022-10-16T04:43:33;10.67;;;8.53;;
6679;SDS011;3376;42.664;23.346;2022-10-16T04:46:00;8.90;;;8.10;;
6679;SDS011;3376;42.664;23.346;2022-10-16T04:48:28;9.07;;;8.30;;
6679;SDS011;3376;42.664;23.346;2022-10-16T04:50:55;8.83;;;8.00;;
6679;SDS011;3376;42.664;23.346;2022-10-16T04:53:22;8.90;;;8.40;;
6679;SDS011;3376;42.664;23.346;2022-10-16T04:55:48;8.40;;;7.97;;
6679;SDS011;3376;42.664;23.346;2022-10-16T04:58:15;9.20;;;8.60;;
6679;SDS011;3376;42.664;23.346;2022-10-16T05:00:43;9.83;;;8.87;;
6679;SDS011;3376;42.664;23.346;2022-10-16T05:03:11;12.13;;;8.07;;
6679;SDS011;3376;42.664;23.346;2022-10-16T05:05:43;13.33;;;9.00;;
6679;SDS011;3376;42.664;23.346;2022-10-16T05:08:11;9.33;;;8.17;;
6679;SDS011;3376;42.664;23.346;2022-10-16T05:10:38;11.50;;;9.17;;
6679;SDS011;3376;42.664;23.346;2022-10-16T05:13:06;9.77;;;8.97;;
6679;SDS011;3376;42.664;23.346;2022-10-16T05:15:33;9.83;;;9.03;;
6679;SDS011;3376;42.664;23.346;2022-10-16T05:18:00;9.20;;;8.60;;
6679;SDS011;3376;42.664;23.346;2022-10-16T05:20:27;8.60;;;7.83;;
6679;SDS011;3376;42.664;23.346;2022-10-16T05:22:55;8.83;;;7.73;;
6679;SDS011;3376;42.664;23.346;2022-10-16T05:25:22;9.97;;;9.07;;
6679;SDS011;3376;42.664;23.346;2022-10-16T05:27:49;10.67;;;9.50;;
6679;SDS011;3376;42.664;23.346;2022-10-16T05:30:16;9.03;;;8.30;;
6679;SDS011;3376;42.664;23.346;2022-10-16T05:32:45;11.50;;;8.67;;
6679;SDS011;3376;42.664;23.346;2022-10-16T05:35:13;9.37;;;8.63;;
6679;SDS011;3376;42.664;23.346;2022-10-16T05:37:39;10.73;;;9.47;;
6679;SDS011;3376;42.664;23.346;2022-10-16T05:40:08;9.33;;;8.70;;
6679;SDS011;3376;42.664;23.346;2022-10-16T05:42:36;9.03;;;8.40;;
6679;SDS011;3376;42.664;23.346;2022-10-16T05:45:03;9.03;;;8.33;;
6679;SDS011;3376;42.664;23.346;2022-10-16T05:47:30;8.37;;;7.87;;
6679;SDS011;3376;42.664;23.346;2022-10-16T05:49:57;8.03;;;7.63;;
6679;SDS011;3376;42.664;23.346;2022-10-16T05:52:24;8.90;;;8.23;;
6679;SDS011;3376;42.664;23.346;2022-10-16T05:54:50;10.03;;;9.30;;
6679;SDS011;3376;42.664;23.346;2022-10-16T05:57:18;9.03;;;8.30;;
6679;SDS011;3376;42.664;23.346;2022-10-16T05:59:45;8.93;;;8.30;;
6679;SDS011;3376;42.664;23.346;2022-10-16T06:02:12;9.70;;;8.77;;
6679;SDS011;3376;42.664;23.346;2022-10-16T06:04:40;9.87;;;9.17;;
6679;SDS011;3376;42.664;23.346;2022-10-16T06:07:06;12.67;;;8.43;;
6679;SDS011;3376;42.664;23.346;2022-10-16T06:09:33;10.07;;;9.43;;
6679;SDS011;3376;42.664;23.346;2022-10-16T06:12:00;10.03;;;9.17;;
6679;SDS011;3376;42.664;23.346;2022-10-16T06:14:28;10.67;;;9.73;;
6679;SDS011;3376;42.664;23.346;2022-10-16T06:16:55;16.37;;;8.80;;
6679;SDS011;3376;42.664;23.346;2022-10-16T06:19:22;12.57;;;9.67;;
6679;SDS011;3376;42.664;23.346;2022-10-16T06:21:49;12.03;;;9.87;;
6679;SDS011;3376;42.664;23.346;2022-10-16T06:24:15;11.17;;;10.17;;
6679;SDS011;3376;42.664;23.346;2022-10-16T06:26:42;11.23;;;10.27;;
6679;SDS011;3376;42.664;23.346;2022-10-16T06:29:09;9.57;;;8.77;;
6679;SDS011;3376;42.664;23.346;2022-10-16T06:31:37;10.87;;;9.17;;
6679;SDS011;3376;42.664;23.346;2022-10-16T06:34:04;8.20;;;7.60;;
6679;SDS011;3376;42.664;23.346;2022-10-16T06:36:34;7.60;;;6.80;;
6679;SDS011;3376;42.664;23.346;2022-10-16T06:39:01;7.37;;;6.87;;
6679;SDS011;3376;42.664;23.346;2022-10-16T06:41:29;7.40;;;6.77;;
6679;SDS011;3376;42.664;23.346;2022-10-16T06:43:55;9.20;;;7.83;;
6679;SDS011;3376;42.664;23.346;2022-10-16T06:46:23;7.40;;;7.00;;
6679;SDS011;3376;42.664;23.346;2022-10-16T06:48:52;7.97;;;6.77;;
6679;SDS011;3376;42.664;23.346;2022-10-16T06:51:20;6.60;;;6.30;;
6679;SDS011;3376;42.664;23.346;2022-10-16T06:53:49;5.67;;;5.33;;
6679;SDS011;3376;42.664;23.346;2022-10-16T06:56:17;6.37;;;5.97;;
6679;SDS011;3376;42.664;23.346;2022-10-16T06:58:46;6.33;;;5.83;;
6679;SDS011;3376;42.664;23.346;2022-10-16T07:01:14;7.90;;;7.30;;
6679;SDS011;3376;42.664;23.346;2022-10-16T07:03:42;7.20;;;6.80;;
6679;SDS011;3376;42.664;23.346;2022-10-16T07:06:12;7.97;;;7.50;;
6679;SDS011;3376;42.664;23.346;2022-10-16T07:08:41;10.10;;;7.07;;
6679;SDS011;3376;42.664;23.346;2022-10-16T07:11:09;7.83;;;7.23;;
6679;SDS011;3376;42.664;23.346;2022-10-16T07:13:37;9.10;;;8.20;;
6679;SDS011;3376;42.664;23.346;2022-10-16T07:16:06;8.10;;;7.60;;
6679;SDS011;3376;42.664;23.346;2022-10-16T07:18:34;8.77;;;8.13;;
6679;SDS011;3376;42.664;23.346;2022-10-16T07:21:05;8.63;;;8.23;;
6679;SDS011;3376;42.664;23.346;2022-10-16T07:23:33;7.90;;;7.40;;
6679;SDS011;3376;42.664;23.346;2022-10-16T07:26:00;9.07;;;8.37;;
6679;SDS011;3376;42.664;23.346;2022-10-16T07:28:27;7.57;;;7.17;;
6679;SDS011;3376;42.664;23.346;2022-10-16T07:30:54;7.57;;;7.07;;
6679;SDS011;3376;42.664;23.346;2022-10-16T07:33:21;9.33;;;8.40;;
6679;SDS011;3376;42.664;23.346;2022-10-16T07:35:48;8.73;;;8.10;;
6679;SDS011;3376;42.664;23.346;2022-10-16T07:38:16;7.97;;;7.53;;
6679;SDS011;3376;42.664;23.346;2022-10-16T07:40:44;8.03;;;7.47;;
6679;SDS011;3376;42.664;23.346;2022-10-16T07:43:11;8.10;;;7.33;;
6679;SDS011;3376;42.664;23.346;2022-10-16T07:45:38;7.63;;;7.13;;
6679;SDS011;3376;42.664;23.346;2022-10-16T07:48:13;8.90;;;8.20;;
6679;SDS011;3376;42.664;23.346;2022-10-16T07:50:40;7.80;;;7.40;;
6679;SDS011;3376;42.664;23.346;2022-10-16T07:53:07;7.63;;;6.93;;
6679;SDS011;3376;42.664;23.346;2022-10-16T07:55:34;7.43;;;6.83;;
6679;SDS011;3376;42.664;23.346;2022-10-16T07:58:02;7.47;;;6.97;;
6679;SDS011;3376;42.664;23.346;2022-10-16T08:00:29;7.07;;;6.53;;
6679;SDS011;3376;42.664;23.346;2022-10-16T08:02:57;6.67;;;6.10;;
6679;SDS011;3376;42.664;23.346;2022-10-16T08:05:25;6.53;;;6.23;;
6679;SDS011;3376;42.664;23.346;2022-10-16T08:07:52;6.47;;;6.00;;
6679;SDS011;3376;42.664;23.346;2022-10-16T08:10:19;6.63;;;6.23;;
6679;SDS011;3376;42.664;23.346;2022-10-16T08:12:48;6.10;;;5.70;;
6679;SDS011;3376;42.664;23.346;2022-10-16T08:15:17;6.23;;;5.60;;
6679;SDS011;3376;42.664;23.346;2022-10-16T08:17:44;5.77;;;5.47;;
6679;SDS011;3376;42.664;23.346;2022-10-16T08:20:11;6.43;;;6.07;;
6679;SDS011;3376;42.664;23.346;2022-10-16T08:22:38;6.03;;;5.73;;
6679;SDS011;3376;42.664;23.346;2022-10-16T08:25:05;5.93;;;5.53;;
6679;SDS011;3376;42.664;23.346;2022-10-16T08:27:32;6.80;;;6.27;;
6679;SDS011;3376;42.664;23.346;2022-10-16T08:29:59;6.13;;;5.87;;
6679;SDS011;3376;42.664;23.346;2022-10-16T08:32:27;6.47;;;6.00;;
6679;SDS011;3376;42.664;23.346;2022-10-16T08:34:54;5.70;;;5.40;;
6679;SDS011;3376;42.664;23.346;2022-10-16T08:37:20;5.77;;;5.33;;
6679;SDS011;3376;42.664;23.346;2022-10-16T08:39:47;5.80;;;5.50;;
6679;SDS011;3376;42.664;23.346;2022-10-16T08:42:27;5.97;;;5.40;;
6679;SDS011;3376;42.664;23.346;2022-10-16T08:45:12;5.23;;;4.80;;
6679;SDS011;3376;42.664;23.346;2022-10-16T08:47:50;4.90;;;4.60;;
6679;SDS011;3376;42.664;23.346;2022-10-16T08:50:26;4.60;;;4.00;;
6679;SDS011;3376;42.664;23.346;2022-10-16T08:52:55;5.17;;;4.40;;
6679;SDS011;3376;42.664;23.346;2022-10-16T08:55:30;4.47;;;4.27;;
6679;SDS011;3376;42.664;23.346;2022-10-16T08:58:07;4.40;;;4.20;;
6679;SDS011;3376;42.664;23.346;2022-10-16T09:00:38;4.27;;;3.87;;
6679;SDS011;3376;42.664;23.346;2022-10-16T09:03:10;4.83;;;4.13;;
6679;SDS011;3376;42.664;23.346;2022-10-16T09:05:54;3.30;;;3.20;;
6679;SDS011;3376;42.664;23.346;2022-10-16T09:08:33;4.20;;;3.93;;
6679;SDS011;3376;42.664;23.346;2022-10-16T09:11:10;3.83;;;3.40;;
6679;SDS011;3376;42.664;23.346;2022-10-16T09:13:46;4.10;;;3.90;;
6679;SDS011;3376;42.664;23.346;2022-10-16T09:16:22;3.70;;;3.40;;
6679;SDS011;3376;42.664;23.346;2022-10-16T09:18:57;3.20;;;3.00;;
6679;SDS011;3376;42.664;23.346;2022-10-16T09:21:32;3.10;;;3.00;;
6679;SDS011;3376;42.664;23.346;2022-10-16T09:24:07;4.60;;;3.20;;
6679;SDS011;3376;42.664;23.346;2022-10-16T09:26:40;3.87;;;3.67;;
6679;SDS011;3376;42.664;23.346;2022-10-16T09:29:08;3.63;;;3.53;;
6679;SDS011;3376;42.664;23.346;2022-10-16T09:31:37;4.03;;;3.67;;
6679;SDS011;3376;42.664;23.346;2022-10-16T09:34:06;3.13;;;2.93;;
6679;SDS011;3376;42.664;23.346;2022-10-16T09:36:40;2.93;;;2.73;;
6679;SDS011;3376;42.664;23.346;2022-10-16T09:39:11;3.57;;;3.27;;
6679;SDS011;3376;42.664;23.346;2022-10-16T09:41:38;3.60;;;3.40;;
6679;SDS011;3376;42.664;23.346;2022-10-16T09:44:14;3.67;;;3.43;;
6679;SDS011;3376;42.664;23.346;2022-10-16T09:46:45;2.83;;;2.73;;
6679;SDS011;3376;42.664;23.346;2022-10-16T09:49:20;3.73;;;3.00;;
6679;SDS011;3376;42.664;23.346;2022-10-16T09:51:49;3.13;;;3.00;;
6679;SDS011;3376;42.664;23.346;2022-10-16T09:54:17;3.33;;;3.23;;
6679;SDS011;3376;42.664;23.346;2022-10-16T09:56:44;3.10;;;3.00;;
6679;SDS011;3376;42.664;23.346;2022-10-16T09:59:17;4.03;;;3.33;;
6679;SDS011;3376;42.664;23.346;2022-10-16T10:01:46;2.80;;;2.60;;
6679;SDS011;3376;42.664;23.346;2022-10-16T10:04:14;2.97;;;2.77;;
6679;SDS011;3376;42.664;23.346;2022-10-16T10:06:43;4.53;;;3.97;;
6679;SDS011;3376;42.664;23.346;2022-10-16T10:09:19;2.60;;;2.50;;
6679;SDS011;3376;42.664;23.346;2022-10-16T10:11:48;3.17;;;3.03;;
6679;SDS011;3376;42.664;23.346;2022-10-16T10:14:21;3.53;;;3.27;;
6679;SDS011;3376;42.664;23.346;2022-10-16T10:17:02;3.10;;;2.83;;
6679;SDS011;3376;42.664;23.346;2022-10-16T10:19:40;3.43;;;3.10;;
6679;SDS011;3376;42.664;23.346;2022-10-16T10:22:25;3.37;;;3.03;;
6679;SDS011;3376;42.664;23.346;2022-10-16T10:24:59;3.13;;;3.03;;
6679;SDS011;3376;42.664;23.346;2022-10-16T10:27:39;3.57;;;3.27;;
6679;SDS011;3376;42.664;23.346;2022-10-16T10:30:18;3.47;;;3.17;;
6679;SDS011;3376;42.664;23.346;2022-10-16T10:32:52;3.23;;;3.13;;
6679;SDS011;3376;42.664;23.346;2022-10-16T10:35:31;2.70;;;2.60;;
6679;SDS011;3376;42.664;23.346;2022-10-16T10:38:12;3.00;;;2.83;;
6679;SDS011;3376;42.664;23.346;2022-10-16T10:40:54;3.60;;;3.40;;
6679;SDS011;3376;42.664;23.346;2022-10-16T10:43:36;3.23;;;3.13;;
6679;SDS011;3376;42.664;23.346;2022-10-16T10:46:15;7.47;;;6.80;;
6679;SDS011;3376;42.664;23.346;2022-10-16T10:51:53;3.60;;;3.40;;
6679;SDS011;3376;42.664;23.346;2022-10-16T10:54:32;3.10;;;2.90;;
6679;SDS011;3376;42.664;23.346;2022-10-16T10:57:08;3.07;;;2.97;;
6679;SDS011;3376;42.664;23.346;2022-10-16T10:59:45;3.50;;;3.40;;
6679;SDS011;3376;42.664;23.346;2022-10-16T11:02:21;3.93;;;3.73;;
6679;SDS011;3376;42.664;23.346;2022-10-16T11:04:59;3.93;;;3.20;;
6679;SDS011;3376;42.664;23.346;2022-10-16T11:07:41;2.13;;;2.00;;
6679;SDS011;3376;42.664;23.346;2022-10-16T11:10:14;2.47;;;2.37;;
6679;SDS011;3376;42.664;23.346;2022-10-16T11:12:45;2.87;;;2.67;;
6679;SDS011;3376;42.664;23.346;2022-10-16T11:15:15;2.20;;;2.10;;
6679;SDS011;3376;42.664;23.346;2022-10-16T11:17:47;2.53;;;2.33;;
6679;SDS011;3376;42.664;23.346;2022-10-16T11:20:20;1.93;;;1.83;;
6679;SDS011;3376;42.664;23.346;2022-10-16T11:22:50;2.87;;;2.77;;
6679;SDS011;3376;42.664;23.346;2022-10-16T11:25:23;3.77;;;3.57;;
6679;SDS011;3376;42.664;23.346;2022-10-16T11:27:54;6.20;;;5.70;;
6679;SDS011;3376;42.664;23.346;2022-10-16T11:30:25;2.80;;;2.70;;
6679;SDS011;3376;42.664;23.346;2022-10-16T11:32:59;2.30;;;2.20;;
6679;SDS011;3376;42.664;23.346;2022-10-16T11:35:37;3.40;;;3.23;;
6679;SDS011;3376;42.664;23.346;2022-10-16T11:38:10;5.83;;;5.60;;
6679;SDS011;3376;42.664;23.346;2022-10-16T11:40:43;6.73;;;6.43;;
6679;SDS011;3376;42.664;23.346;2022-10-16T11:43:14;1.97;;;1.77;;
6679;SDS011;3376;42.664;23.346;2022-10-16T11:45:46;3.37;;;3.07;;
6679;SDS011;3376;42.664;23.346;2022-10-16T11:48:18;3.20;;;2.70;;
6679;SDS011;3376;42.664;23.346;2022-10-16T11:50:53;3.40;;;3.10;;
6679;SDS011;3376;42.664;23.346;2022-10-16T11:53:27;3.17;;;2.97;;
6679;SDS011;3376;42.664;23.346;2022-10-16T11:56:04;2.50;;;2.30;;
6679;SDS011;3376;42.664;23.346;2022-10-16T11:58:32;2.40;;;2.30;;
6679;SDS011;3376;42.664;23.346;2022-10-16T12:01:10;2.63;;;2.53;;
6679;SDS011;3376;42.664;23.346;2022-10-16T12:03:45;2.77;;;2.60;;
6679;SDS011;3376;42.664;23.346;2022-10-16T12:06:20;4.23;;;2.60;;
6679;SDS011;3376;42.664;23.346;2022-10-16T12:08:53;2.80;;;2.70;;
6679;SDS011;3376;42.664;23.346;2022-10-16T12:11:32;2.77;;;2.57;;
6679;SDS011;3376;42.664;23.346;2022-10-16T12:14:18;2.37;;;2.33;;
6679;SDS011;3376;42.664;23.346;2022-10-16T12:16:54;2.60;;;2.50;;
6679;SDS011;3376;42.664;23.346;2022-10-16T12:19:22;4.07;;;2.90;;
6679;SDS011;3376;42.664;23.346;2022-10-16T12:21:50;2.90;;;2.70;;
6679;SDS011;3376;42.664;23.346;2022-10-16T12:24:22;2.87;;;2.67;;
6679;SDS011;3376;42.664;23.346;2022-10-16T12:26:59;2.97;;;2.63;;
6679;SDS011;3376;42.664;23.346;2022-10-16T12:29:30;2.60;;;2.50;;
6679;SDS011;3376;42.664;23.346;2022-10-16T12:32:00;2.33;;;2.13;;
6679;SDS011;3376;42.664;23.346;2022-10-16T12:34:32;2.23;;;2.13;;
6679;SDS011;3376;42.664;23.346;2022-10-16T12:37:08;2.47;;;2.37;;
6679;SDS011;3376;42.664;23.346;2022-10-16T12:39:38;2.30;;;2.20;;
6679;SDS011;3376;42.664;23.346;2022-10-16T12:42:19;2.67;;;2.47;;
6679;SDS011;3376;42.664;23.346;2022-10-16T12:44:48;2.60;;;2.50;;
6679;SDS011;3376;42.664;23.346;2022-10-16T12:47:19;2.47;;;2.37;;
6679;SDS011;3376;42.664;23.346;2022-10-16T12:49:48;3.40;;;2.20;;
6679;SDS011;3376;42.664;23.346;2022-10-16T12:52:26;6.17;;;2.23;;
6679;SDS011;3376;42.664;23.346;2022-10-16T12:54:56;4.73;;;2.23;;
6679;SDS011;3376;42.664;23.346;2022-10-16T12:57:32;2.30;;;2.10;;
6679;SDS011;3376;42.664;23.346;2022-10-16T13:00:13;2.70;;;2.50;;
6679;SDS011;3376;42.664;23.346;2022-10-16T13:02:57;2.90;;;2.43;;
6679;SDS011;3376;42.664;23.346;2022-10-16T13:05:55;2.30;;;2.20;;
6679;SDS011;3376;42.664;23.346;2022-10-16T13:08:47;2.30;;;2.20;;
6679;SDS011;3376;42.664;23.346;2022-10-16T13:11:37;2.10;;;2.00;;
6679;SDS011;3376;42.664;23.346;2022-10-16T13:14:22;2.50;;;2.40;;
6679;SDS011;3376;42.664;23.346;2022-10-16T13:17:00;3.03;;;2.83;;
6679;SDS011;3376;42.664;23.346;2022-10-16T13:19:38;2.37;;;2.20;;
6679;SDS011;3376;42.664;23.346;2022-10-16T13:22:13;2.40;;;2.30;;
6679;SDS011;3376;42.664;23.346;2022-10-16T13:24:53;4.13;;;2.60;;
6679;SDS011;3376;42.664;23.346;2022-10-16T13:27:30;2.20;;;2.00;;
6679;SDS011;3376;42.664;23.346;2022-10-16T13:30:12;2.50;;;2.30;;
6679;SDS011;3376;42.664;23.346;2022-10-16T13:32:44;2.97;;;2.77;;
6679;SDS011;3376;42.664;23.346;2022-10-16T13:35:19;2.63;;;2.53;;
6679;SDS011;3376;42.664;23.346;2022-10-16T13:37:48;2.70;;;2.57;;
6679;SDS011;3376;42.664;23.346;2022-10-16T13:40:20;2.87;;;2.67;;
6679;SDS011;3376;42.664;23.346;2022-10-16T13:42:48;2.60;;;2.40;;
6679;SDS011;3376;42.664;23.346;2022-10-16T13:45:21;2.03;;;1.93;;
6679;SDS011;3376;42.664;23.346;2022-10-16T13:47:50;2.40;;;2.30;;
6679;SDS011;3376;42.664;23.346;2022-10-16T13:50:28;2.90;;;2.80;;
6679;SDS011;3376;42.664;23.346;2022-10-16T13:53:02;2.97;;;2.67;;
6679;SDS011;3376;42.664;23.346;2022-10-16T13:55:30;2.97;;;2.80;;
6679;SDS011;3376;42.664;23.346;2022-10-16T13:58:04;3.10;;;2.80;;
6679;SDS011;3376;42.664;23.346;2022-10-16T14:00:32;2.53;;;2.43;;
6679;SDS011;3376;42.664;23.346;2022-10-16T14:03:01;3.30;;;3.00;;
6679;SDS011;3376;42.664;23.346;2022-10-16T14:05:30;2.67;;;2.47;;
6679;SDS011;3376;42.664;23.346;2022-10-16T14:07:58;2.90;;;2.80;;
6679;SDS011;3376;42.664;23.346;2022-10-16T14:10:25;2.87;;;2.67;;
6679;SDS011;3376;42.664;23.346;2022-10-16T14:12:56;4.07;;;2.60;;
6679;SDS011;3376;42.664;23.346;2022-10-16T14:15:25;2.80;;;2.70;;
6679;SDS011;3376;42.664;23.346;2022-10-16T14:17:54;2.30;;;2.10;;
6679;SDS011;3376;42.664;23.346;2022-10-16T14:20:22;3.57;;;2.57;;
6679;SDS011;3376;42.664;23.346;2022-10-16T14:22:59;3.07;;;2.70;;
6679;SDS011;3376;42.664;23.346;2022-10-16T14:25:28;3.00;;;2.63;;
6679;SDS011;3376;42.664;23.346;2022-10-16T14:27:57;2.40;;;2.30;;
6679;SDS011;3376;42.664;23.346;2022-10-16T14:30:25;2.57;;;2.20;;
6679;SDS011;3376;42.664;23.346;2022-10-16T14:32:55;2.17;;;2.00;;
6679;SDS011;3376;42.664;23.346;2022-10-16T14:35:24;2.10;;;2.00;;
6679;SDS011;3376;42.664;23.346;2022-10-16T14:37:53;3.30;;;2.30;;
6679;SDS011;3376;42.664;23.346;2022-10-16T14:40:23;3.07;;;2.87;;
6679;SDS011;3376;42.664;23.346;2022-10-16T14:42:51;6.07;;;2.27;;
6679;SDS011;3376;42.664;23.346;2022-10-16T14:45:19;3.00;;;2.90;;
6679;SDS011;3376;42.664;23.346;2022-10-16T14:47:48;2.70;;;2.50;;
6679;SDS011;3376;42.664;23.346;2022-10-16T14:50:19;2.90;;;2.70;;
6679;SDS011;3376;42.664;23.346;2022-10-16T14:52:46;2.70;;;2.47;;
6679;SDS011;3376;42.664;23.346;2022-10-16T14:55:13;2.50;;;2.40;;
6679;SDS011;3376;42.664;23.346;2022-10-16T14:57:40;2.30;;;2.17;;
6679;SDS011;3376;42.664;23.346;2022-10-16T15:00:10;2.33;;;2.23;;
6679;SDS011;3376;42.664;23.346;2022-10-16T15:02:42;2.57;;;2.47;;
6679;SDS011;3376;42.664;23.346;2022-10-16T15:05:11;2.83;;;2.63;;
6679;SDS011;3376;42.664;23.346;2022-10-16T15:07:42;4.57;;;3.03;;
6679;SDS011;3376;42.664;23.346;2022-10-16T15:10:10;3.30;;;3.13;;
6679;SDS011;3376;42.664;23.346;2022-10-16T15:12:37;2.73;;;2.63;;
6679;SDS011;3376;42.664;23.346;2022-10-16T15:17:57;3.17;;;3.07;;
6679;SDS011;3376;42.664;23.346;2022-10-16T15:20:26;4.57;;;3.27;;